KBHB

Hancock County-Bar Harbor Airport

Bar Harbor, Maine, USA
METAR KBHB 241956Z AUTO 31011G18KT 270V340 10SM BKN060 08/M02 A3005 RMK AO2 SLP181 T00831022 PNO $
Observed Flight Rules
Feb-24 @ 19:56 UTC (18 minutes ago) Visual Flight Rules
Wind Visibility Clouds
310° at 11 knots
 Gusting to 18 knots
10 miles
  • Broken at 6,000' AGL
Temperatures Readings
Current 8°C / 46°F
Dewpoint -2°C / 28°F
Humidity 50%
Altimeter 30.05" Hg
Pressure 1018.1 hPa
Elevation 26
METAR KBHB 241956Z AUTO 31011G18KT 270V340 10SM BKN060 08/M02 A3005 RMK AO2 SLP181 T00831022 PNO $
Observed Flight Rules
Feb-24 @ 19:56 UTC
(18 minutes ago)
VFR
Wind Visibility
310° at 11 knots
 Gusting to 18 knots
10 miles
Clouds
  • Broken at 6,000' AGL
Temperature Dewpoint
8°C / 46°F -2°C / 28°F
Humidity Altimeter Pressure
50% 30.05" Hg 1018.1 hPa